sensor_id;sensor_type;location;lat;lon;timestamp;temperature;humidity
36002;DHT22;22070;50.922;5.430;2023-11-21T00:00:47;9.50;99.90
36002;DHT22;22070;50.922;5.430;2023-11-21T00:03:12;9.60;99.90
36002;DHT22;22070;50.922;5.430;2023-11-21T00:05:40;9.50;99.90
36002;DHT22;22070;50.922;5.430;2023-11-21T00:08:09;9.50;99.90
36002;DHT22;22070;50.922;5.430;2023-11-21T00:10:35;9.40;99.90
36002;DHT22;22070;50.922;5.430;2023-11-21T00:13:03;9.40;99.90
36002;DHT22;22070;50.922;5.430;2023-11-21T00:15:29;9.50;99.90
36002;DHT22;22070;50.922;5.430;2023-11-21T00:17:55;9.50;99.90
36002;DHT22;22070;50.922;5.430;2023-11-21T00:20:20;9.60;99.90
36002;DHT22;22070;50.922;5.430;2023-11-21T00:22:46;9.60;99.90
36002;DHT22;22070;50.922;5.430;2023-11-21T00:25:13;9.60;99.90
36002;DHT22;22070;50.922;5.430;2023-11-21T00:27:41;9.60;99.90
36002;DHT22;22070;50.922;5.430;2023-11-21T00:30:07;9.60;99.90
36002;DHT22;22070;50.922;5.430;2023-11-21T00:32:35;9.50;99.90
36002;DHT22;22070;50.922;5.430;2023-11-21T00:35:01;9.50;99.90
36002;DHT22;22070;50.922;5.430;2023-11-21T00:37:27;9.60;99.90
36002;DHT22;22070;50.922;5.430;2023-11-21T00:39:53;9.60;99.90
36002;DHT22;22070;50.922;5.430;2023-11-21T00:42:18;9.50;99.90
36002;DHT22;22070;50.922;5.430;2023-11-21T00:44:44;9.60;99.90
36002;DHT22;22070;50.922;5.430;2023-11-21T00:47:10;9.60;99.90
36002;DHT22;22070;50.922;5.430;2023-11-21T00:49:35;9.50;99.90
36002;DHT22;22070;50.922;5.430;2023-11-21T00:52:01;9.60;99.90
36002;DHT22;22070;50.922;5.430;2023-11-21T00:54:28;9.60;99.90
36002;DHT22;22070;50.922;5.430;2023-11-21T00:56:54;9.60;99.90
36002;DHT22;22070;50.922;5.430;2023-11-21T00:59:19;9.60;99.90
36002;DHT22;22070;50.922;5.430;2023-11-21T01:01:45;9.60;99.90
36002;DHT22;22070;50.922;5.430;2023-11-21T01:04:10;9.60;99.90
36002;DHT22;22070;50.922;5.430;2023-11-21T01:06:36;9.60;99.90
36002;DHT22;22070;50.922;5.430;2023-11-21T01:09:02;9.60;99.90
36002;DHT22;22070;50.922;5.430;2023-11-21T01:11:34;9.60;99.90
36002;DHT22;22070;50.922;5.430;2023-11-21T01:14:01;9.60;99.90
36002;DHT22;22070;50.922;5.430;2023-11-21T01:16:28;9.70;99.90
36002;DHT22;22070;50.922;5.430;2023-11-21T01:18:54;9.70;99.90
36002;DHT22;22070;50.922;5.430;2023-11-21T01:21:20;9.70;99.90
36002;DHT22;22070;50.922;5.430;2023-11-21T01:23:46;9.70;99.90
36002;DHT22;22070;50.922;5.430;2023-11-21T01:26:12;9.70;99.90
36002;DHT22;22070;50.922;5.430;2023-11-21T01:28:38;9.70;99.90
36002;DHT22;22070;50.922;5.430;2023-11-21T01:31:04;9.70;99.90
36002;DHT22;22070;50.922;5.430;2023-11-21T01:33:29;9.70;99.90
36002;DHT22;22070;50.922;5.430;2023-11-21T01:35:55;9.70;99.90
36002;DHT22;22070;50.922;5.430;2023-11-21T01:38:21;9.70;99.90
36002;DHT22;22070;50.922;5.430;2023-11-21T01:40:47;9.70;99.90
36002;DHT22;22070;50.922;5.430;2023-11-21T01:43:13;9.70;99.90
36002;DHT22;22070;50.922;5.430;2023-11-21T01:45:39;9.70;99.90
36002;DHT22;22070;50.922;5.430;2023-11-21T01:48:05;9.70;99.90
36002;DHT22;22070;50.922;5.430;2023-11-21T01:50:32;9.70;99.90
36002;DHT22;22070;50.922;5.430;2023-11-21T01:52:59;9.70;99.90
36002;DHT22;22070;50.922;5.430;2023-11-21T01:55:26;9.70;99.90
36002;DHT22;22070;50.922;5.430;2023-11-21T01:57:52;9.70;99.90
36002;DHT22;22070;50.922;5.430;2023-11-21T02:00:18;9.80;99.90
36002;DHT22;22070;50.922;5.430;2023-11-21T02:02:48;9.70;99.90
36002;DHT22;22070;50.922;5.430;2023-11-21T02:05:18;9.70;99.90
36002;DHT22;22070;50.922;5.430;2023-11-21T02:07:45;9.70;99.90
36002;DHT22;22070;50.922;5.430;2023-11-21T02:10:13;9.80;99.90
36002;DHT22;22070;50.922;5.430;2023-11-21T02:12:41;9.80;99.90
36002;DHT22;22070;50.922;5.430;2023-11-21T02:15:09;9.70;99.90
36002;DHT22;22070;50.922;5.430;2023-11-21T02:17:41;9.70;99.90
36002;DHT22;22070;50.922;5.430;2023-11-21T02:20:12;9.70;99.90
36002;DHT22;22070;50.922;5.430;2023-11-21T02:22:41;9.70;99.90
36002;DHT22;22070;50.922;5.430;2023-11-21T02:25:07;9.80;99.90
36002;DHT22;22070;50.922;5.430;2023-11-21T02:27:33;9.80;99.90
36002;DHT22;22070;50.922;5.430;2023-11-21T02:29:59;9.80;99.90
36002;DHT22;22070;50.922;5.430;2023-11-21T02:32:26;9.80;99.90
36002;DHT22;22070;50.922;5.430;2023-11-21T02:34:52;9.80;99.90
36002;DHT22;22070;50.922;5.430;2023-11-21T02:37:21;9.80;99.90
36002;DHT22;22070;50.922;5.430;2023-11-21T02:39:47;9.70;99.90
36002;DHT22;22070;50.922;5.430;2023-11-21T02:42:12;9.70;99.90
36002;DHT22;22070;50.922;5.430;2023-11-21T02:44:38;9.70;99.90
36002;DHT22;22070;50.922;5.430;2023-11-21T02:47:04;9.70;99.90
36002;DHT22;22070;50.922;5.430;2023-11-21T02:49:29;9.70;99.90
36002;DHT22;22070;50.922;5.430;2023-11-21T02:51:56;9.80;99.90
36002;DHT22;22070;50.922;5.430;2023-11-21T02:54:22;9.80;99.90
36002;DHT22;22070;50.922;5.430;2023-11-21T02:56:48;9.80;99.90
36002;DHT22;22070;50.922;5.430;2023-11-21T02:59:15;9.80;99.90
36002;DHT22;22070;50.922;5.430;2023-11-21T03:01:41;9.80;99.90
36002;DHT22;22070;50.922;5.430;2023-11-21T03:04:06;9.80;99.90
36002;DHT22;22070;50.922;5.430;2023-11-21T03:06:32;9.80;99.90
36002;DHT22;22070;50.922;5.430;2023-11-21T03:08:59;9.80;99.90
36002;DHT22;22070;50.922;5.430;2023-11-21T03:11:24;9.80;99.90
36002;DHT22;22070;50.922;5.430;2023-11-21T03:13:50;9.90;99.90
36002;DHT22;22070;50.922;5.430;2023-11-21T03:16:16;9.80;99.90
36002;DHT22;22070;50.922;5.430;2023-11-21T03:18:42;9.90;99.90
36002;DHT22;22070;50.922;5.430;2023-11-21T03:21:08;9.90;99.90
36002;DHT22;22070;50.922;5.430;2023-11-21T03:23:36;9.90;99.90
36002;DHT22;22070;50.922;5.430;2023-11-21T03:26:03;9.90;99.90
36002;DHT22;22070;50.922;5.430;2023-11-21T03:28:29;9.90;99.90
36002;DHT22;22070;50.922;5.430;2023-11-21T03:30:55;9.90;99.90
36002;DHT22;22070;50.922;5.430;2023-11-21T03:33:21;10.00;99.90
36002;DHT22;22070;50.922;5.430;2023-11-21T03:35:48;10.00;99.90
36002;DHT22;22070;50.922;5.430;2023-11-21T03:38:13;9.90;99.90
36002;DHT22;22070;50.922;5.430;2023-11-21T03:40:39;9.90;99.90
36002;DHT22;22070;50.922;5.430;2023-11-21T03:43:05;10.00;99.90
36002;DHT22;22070;50.922;5.430;2023-11-21T03:45:32;9.90;99.90
36002;DHT22;22070;50.922;5.430;2023-11-21T03:47:57;10.00;99.90
36002;DHT22;22070;50.922;5.430;2023-11-21T03:50:23;10.00;99.90
36002;DHT22;22070;50.922;5.430;2023-11-21T03:52:49;9.90;99.90
36002;DHT22;22070;50.922;5.430;2023-11-21T03:55:14;9.90;99.90
36002;DHT22;22070;50.922;5.430;2023-11-21T03:57:40;9.80;99.90
36002;DHT22;22070;50.922;5.430;2023-11-21T04:00:06;9.80;99.90
36002;DHT22;22070;50.922;5.430;2023-11-21T04:02:34;9.70;99.90
36002;DHT22;22070;50.922;5.430;2023-11-21T04:05:00;9.80;99.90
36002;DHT22;22070;50.922;5.430;2023-11-21T04:07:26;9.80;99.90
36002;DHT22;22070;50.922;5.430;2023-11-21T04:09:52;9.90;99.90
36002;DHT22;22070;50.922;5.430;2023-11-21T04:12:19;9.80;99.90
36002;DHT22;22070;50.922;5.430;2023-11-21T04:14:45;9.90;99.90
36002;DHT22;22070;50.922;5.430;2023-11-21T04:17:10;9.80;99.90
36002;DHT22;22070;50.922;5.430;2023-11-21T04:19:36;9.80;99.90
36002;DHT22;22070;50.922;5.430;2023-11-21T04:22:01;9.80;99.90
36002;DHT22;22070;50.922;5.430;2023-11-21T04:24:27;9.80;99.90
36002;DHT22;22070;50.922;5.430;2023-11-21T04:26:53;9.80;99.90
36002;DHT22;22070;50.922;5.430;2023-11-21T04:29:19;9.70;99.90
36002;DHT22;22070;50.922;5.430;2023-11-21T04:31:44;9.70;99.90
36002;DHT22;22070;50.922;5.430;2023-11-21T04:34:10;9.70;99.90
36002;DHT22;22070;50.922;5.430;2023-11-21T04:36:35;9.80;99.90
36002;DHT22;22070;50.922;5.430;2023-11-21T04:39:01;9.80;99.90
36002;DHT22;22070;50.922;5.430;2023-11-21T04:41:27;9.70;99.90
36002;DHT22;22070;50.922;5.430;2023-11-21T04:43:52;9.70;99.90
36002;DHT22;22070;50.922;5.430;2023-11-21T04:46:18;9.80;99.90
36002;DHT22;22070;50.922;5.430;2023-11-21T04:48:44;9.80;99.90
36002;DHT22;22070;50.922;5.430;2023-11-21T04:51:09;9.80;99.90
36002;DHT22;22070;50.922;5.430;2023-11-21T04:53:37;9.90;99.90
36002;DHT22;22070;50.922;5.430;2023-11-21T04:56:02;10.00;99.90
36002;DHT22;22070;50.922;5.430;2023-11-21T04:58:28;10.00;99.90
36002;DHT22;22070;50.922;5.430;2023-11-21T05:00:54;9.90;99.90
36002;DHT22;22070;50.922;5.430;2023-11-21T05:03:20;9.90;99.90
36002;DHT22;22070;50.922;5.430;2023-11-21T05:05:46;10.00;99.90
36002;DHT22;22070;50.922;5.430;2023-11-21T05:08:11;9.80;99.90
36002;DHT22;22070;50.922;5.430;2023-11-21T05:10:37;9.80;99.90
36002;DHT22;22070;50.922;5.430;2023-11-21T05:13:04;9.80;99.90
36002;DHT22;22070;50.922;5.430;2023-11-21T05:15:35;9.70;99.90
36002;DHT22;22070;50.922;5.430;2023-11-21T05:18:00;9.70;99.90
36002;DHT22;22070;50.922;5.430;2023-11-21T05:20:26;9.70;99.90
36002;DHT22;22070;50.922;5.430;2023-11-21T05:22:52;9.60;99.90
36002;DHT22;22070;50.922;5.430;2023-11-21T05:25:17;9.50;99.90
36002;DHT22;22070;50.922;5.430;2023-11-21T05:27:47;9.50;99.90
36002;DHT22;22070;50.922;5.430;2023-11-21T05:30:13;9.50;99.90
36002;DHT22;22070;50.922;5.430;2023-11-21T05:32:40;9.50;99.90
36002;DHT22;22070;50.922;5.430;2023-11-21T05:35:08;9.50;99.90
36002;DHT22;22070;50.922;5.430;2023-11-21T05:37:42;9.50;99.90
36002;DHT22;22070;50.922;5.430;2023-11-21T05:40:08;9.50;99.90
36002;DHT22;22070;50.922;5.430;2023-11-21T05:42:35;9.50;99.90
36002;DHT22;22070;50.922;5.430;2023-11-21T05:45:01;9.50;99.90
36002;DHT22;22070;50.922;5.430;2023-11-21T05:47:44;9.60;99.90
36002;DHT22;22070;50.922;5.430;2023-11-21T05:50:13;9.60;99.90
36002;DHT22;22070;50.922;5.430;2023-11-21T05:52:45;9.60;99.90
36002;DHT22;22070;50.922;5.430;2023-11-21T05:55:11;9.60;99.90
36002;DHT22;22070;50.922;5.430;2023-11-21T05:57:39;9.60;99.90
36002;DHT22;22070;50.922;5.430;2023-11-21T06:00:06;9.60;99.90
36002;DHT22;22070;50.922;5.430;2023-11-21T06:02:57;9.60;99.90
36002;DHT22;22070;50.922;5.430;2023-11-21T06:05:25;9.60;99.90
36002;DHT22;22070;50.922;5.430;2023-11-21T06:07:52;9.60;99.90
36002;DHT22;22070;50.922;5.430;2023-11-21T06:10:22;9.50;99.90
36002;DHT22;22070;50.922;5.430;2023-11-21T06:12:49;9.50;99.90
36002;DHT22;22070;50.922;5.430;2023-11-21T06:15:15;9.50;99.90
36002;DHT22;22070;50.922;5.430;2023-11-21T06:17:42;9.50;99.90
36002;DHT22;22070;50.922;5.430;2023-11-21T06:20:09;9.50;99.90
36002;DHT22;22070;50.922;5.430;2023-11-21T06:22:37;9.50;99.90
36002;DHT22;22070;50.922;5.430;2023-11-21T06:25:03;9.50;99.90
36002;DHT22;22070;50.922;5.430;2023-11-21T06:27:37;9.50;99.90
36002;DHT22;22070;50.922;5.430;2023-11-21T06:30:03;9.50;99.90
36002;DHT22;22070;50.922;5.430;2023-11-21T06:32:29;9.40;99.90
36002;DHT22;22070;50.922;5.430;2023-11-21T06:34:58;9.40;99.90
36002;DHT22;22070;50.922;5.430;2023-11-21T06:37:27;9.40;99.90
36002;DHT22;22070;50.922;5.430;2023-11-21T06:39:53;9.40;99.90
36002;DHT22;22070;50.922;5.430;2023-11-21T06:42:19;9.40;99.90
36002;DHT22;22070;50.922;5.430;2023-11-21T06:44:46;9.40;99.90
36002;DHT22;22070;50.922;5.430;2023-11-21T06:47:11;9.50;99.90
36002;DHT22;22070;50.922;5.430;2023-11-21T06:49:37;9.60;99.90
36002;DHT22;22070;50.922;5.430;2023-11-21T06:52:04;9.60;99.90
36002;DHT22;22070;50.922;5.430;2023-11-21T06:54:31;9.70;99.90
36002;DHT22;22070;50.922;5.430;2023-11-21T06:56:57;9.60;99.90
36002;DHT22;22070;50.922;5.430;2023-11-21T06:59:23;9.60;99.90
36002;DHT22;22070;50.922;5.430;2023-11-21T07:01:50;9.60;99.90
36002;DHT22;22070;50.922;5.430;2023-11-21T07:04:15;9.60;99.90
36002;DHT22;22070;50.922;5.430;2023-11-21T07:06:41;9.60;99.90
36002;DHT22;22070;50.922;5.430;2023-11-21T07:09:07;9.60;99.90
36002;DHT22;22070;50.922;5.430;2023-11-21T07:11:34;9.70;99.90
36002;DHT22;22070;50.922;5.430;2023-11-21T07:14:00;9.80;99.90
36002;DHT22;22070;50.922;5.430;2023-11-21T07:16:32;9.70;99.90
36002;DHT22;22070;50.922;5.430;2023-11-21T07:19:00;9.70;99.90
36002;DHT22;22070;50.922;5.430;2023-11-21T07:21:25;9.70;99.90
36002;DHT22;22070;50.922;5.430;2023-11-21T07:23:51;9.70;99.90
36002;DHT22;22070;50.922;5.430;2023-11-21T07:26:17;9.80;99.90
36002;DHT22;22070;50.922;5.430;2023-11-21T07:28:42;9.70;99.90
36002;DHT22;22070;50.922;5.430;2023-11-21T07:31:08;9.70;99.90
36002;DHT22;22070;50.922;5.430;2023-11-21T07:33:34;9.70;99.90
36002;DHT22;22070;50.922;5.430;2023-11-21T07:35:59;9.70;99.90
36002;DHT22;22070;50.922;5.430;2023-11-21T07:38:25;9.80;99.90
36002;DHT22;22070;50.922;5.430;2023-11-21T07:40:52;9.80;99.90
36002;DHT22;22070;50.922;5.430;2023-11-21T07:43:18;9.90;99.90
36002;DHT22;22070;50.922;5.430;2023-11-21T07:45:44;9.80;99.90
36002;DHT22;22070;50.922;5.430;2023-11-21T07:48:10;9.90;99.90
36002;DHT22;22070;50.922;5.430;2023-11-21T07:50:36;9.90;99.90
36002;DHT22;22070;50.922;5.430;2023-11-21T07:53:01;9.90;99.90
36002;DHT22;22070;50.922;5.430;2023-11-21T07:55:30;9.90;99.90
36002;DHT22;22070;50.922;5.430;2023-11-21T07:57:57;9.90;99.90
36002;DHT22;22070;50.922;5.430;2023-11-21T08:00:23;9.90;99.90
36002;DHT22;22070;50.922;5.430;2023-11-21T08:02:49;10.00;99.90
36002;DHT22;22070;50.922;5.430;2023-11-21T08:05:16;9.90;99.90
36002;DHT22;22070;50.922;5.430;2023-11-21T08:07:41;10.00;99.90
36002;DHT22;22070;50.922;5.430;2023-11-21T08:10:07;10.00;99.90
36002;DHT22;22070;50.922;5.430;2023-11-21T08:12:35;10.00;99.90
36002;DHT22;22070;50.922;5.430;2023-11-21T08:15:01;10.00;99.90
36002;DHT22;22070;50.922;5.430;2023-11-21T08:17:28;10.00;99.90
36002;DHT22;22070;50.922;5.430;2023-11-21T08:19:54;10.00;99.90
36002;DHT22;22070;50.922;5.430;2023-11-21T08:22:20;9.90;99.90
36002;DHT22;22070;50.922;5.430;2023-11-21T08:24:46;10.00;99.90
36002;DHT22;22070;50.922;5.430;2023-11-21T08:27:12;10.00;99.90
36002;DHT22;22070;50.922;5.430;2023-11-21T08:29:41;10.00;99.90
36002;DHT22;22070;50.922;5.430;2023-11-21T08:32:07;10.10;99.90
36002;DHT22;22070;50.922;5.430;2023-11-21T08:34:33;10.10;99.90
36002;DHT22;22070;50.922;5.430;2023-11-21T08:36:58;10.00;99.90
36002;DHT22;22070;50.922;5.430;2023-11-21T08:39:24;10.00;99.90
36002;DHT22;22070;50.922;5.430;2023-11-21T08:41:53;10.10;99.90
36002;DHT22;22070;50.922;5.430;2023-11-21T08:44:19;10.00;99.90
36002;DHT22;22070;50.922;5.430;2023-11-21T08:46:45;10.10;99.90
36002;DHT22;22070;50.922;5.430;2023-11-21T08:49:12;10.10;99.90
36002;DHT22;22070;50.922;5.430;2023-11-21T08:51:38;10.10;99.90
36002;DHT22;22070;50.922;5.430;2023-11-21T08:54:04;10.00;99.90
36002;DHT22;22070;50.922;5.430;2023-11-21T08:56:33;10.00;99.90
36002;DHT22;22070;50.922;5.430;2023-11-21T08:58:59;10.10;99.90
36002;DHT22;22070;50.922;5.430;2023-11-21T09:01:29;10.00;99.90
36002;DHT22;22070;50.922;5.430;2023-11-21T09:03:57;10.10;99.90
36002;DHT22;22070;50.922;5.430;2023-11-21T09:06:22;10.10;99.90
36002;DHT22;22070;50.922;5.430;2023-11-21T09:08:48;10.20;99.90
36002;DHT22;22070;50.922;5.430;2023-11-21T09:11:14;10.10;99.90
36002;DHT22;22070;50.922;5.430;2023-11-21T09:13:39;10.10;99.90
36002;DHT22;22070;50.922;5.430;2023-11-21T09:16:05;10.10;99.90
36002;DHT22;22070;50.922;5.430;2023-11-21T09:18:31;10.10;99.90
36002;DHT22;22070;50.922;5.430;2023-11-21T09:20:57;10.20;99.90
36002;DHT22;22070;50.922;5.430;2023-11-21T09:23:24;10.20;99.90
36002;DHT22;22070;50.922;5.430;2023-11-21T09:25:49;10.30;99.90
36002;DHT22;22070;50.922;5.430;2023-11-21T09:28:17;10.20;99.90
36002;DHT22;22070;50.922;5.430;2023-11-21T09:30:43;10.20;99.90
36002;DHT22;22070;50.922;5.430;2023-11-21T09:33:09;10.20;99.90
36002;DHT22;22070;50.922;5.430;2023-11-21T09:35:39;10.30;99.90
36002;DHT22;22070;50.922;5.430;2023-11-21T09:38:04;10.30;99.90
36002;DHT22;22070;50.922;5.430;2023-11-21T09:40:35;10.30;99.90
36002;DHT22;22070;50.922;5.430;2023-11-21T09:43:09;10.40;99.90
36002;DHT22;22070;50.922;5.430;2023-11-21T09:45:48;10.50;99.90
36002;DHT22;22070;50.922;5.430;2023-11-21T09:48:17;10.50;99.90
36002;DHT22;22070;50.922;5.430;2023-11-21T09:50:43;10.60;99.90
36002;DHT22;22070;50.922;5.430;2023-11-21T09:53:21;10.70;99.90
36002;DHT22;22070;50.922;5.430;2023-11-21T09:55:51;10.70;99.90
36002;DHT22;22070;50.922;5.430;2023-11-21T09:58:18;10.70;99.90
36002;DHT22;22070;50.922;5.430;2023-11-21T10:00:47;10.80;99.90
36002;DHT22;22070;50.922;5.430;2023-11-21T10:03:14;10.80;99.90
36002;DHT22;22070;50.922;5.430;2023-11-21T10:05:42;10.80;99.90
36002;DHT22;22070;50.922;5.430;2023-11-21T10:08:10;10.90;99.90
36002;DHT22;22070;50.922;5.430;2023-11-21T10:10:37;10.80;99.90
36002;DHT22;22070;50.922;5.430;2023-11-21T10:13:05;10.80;99.90
36002;DHT22;22070;50.922;5.430;2023-11-21T10:15:33;10.80;99.90
36002;DHT22;22070;50.922;5.430;2023-11-21T10:18:05;10.80;99.90
36002;DHT22;22070;50.922;5.430;2023-11-21T10:20:32;10.70;99.90
36002;DHT22;22070;50.922;5.430;2023-11-21T10:22:59;10.80;99.90
36002;DHT22;22070;50.922;5.430;2023-11-21T10:25:27;10.80;99.90
36002;DHT22;22070;50.922;5.430;2023-11-21T10:27:57;10.90;99.90
36002;DHT22;22070;50.922;5.430;2023-11-21T10:30:31;11.00;99.90
36002;DHT22;22070;50.922;5.430;2023-11-21T10:33:01;11.00;99.90
36002;DHT22;22070;50.922;5.430;2023-11-21T10:35:48;11.00;99.90
36002;DHT22;22070;50.922;5.430;2023-11-21T10:38:20;11.00;99.90
36002;DHT22;22070;50.922;5.430;2023-11-21T10:40:50;11.00;99.90
36002;DHT22;22070;50.922;5.430;2023-11-21T10:43:16;10.90;99.90
36002;DHT22;22070;50.922;5.430;2023-11-21T10:45:43;10.90;99.90
36002;DHT22;22070;50.922;5.430;2023-11-21T10:48:10;11.00;99.90
36002;DHT22;22070;50.922;5.430;2023-11-21T10:50:38;11.00;99.90
36002;DHT22;22070;50.922;5.430;2023-11-21T10:53:04;11.00;99.90
36002;DHT22;22070;50.922;5.430;2023-11-21T10:55:31;11.00;99.90
36002;DHT22;22070;50.922;5.430;2023-11-21T10:58:06;11.00;99.90
36002;DHT22;22070;50.922;5.430;2023-11-21T11:00:33;11.10;99.90
36002;DHT22;22070;50.922;5.430;2023-11-21T11:02:59;11.20;99.90
36002;DHT22;22070;50.922;5.430;2023-11-21T11:05:28;11.10;99.90
36002;DHT22;22070;50.922;5.430;2023-11-21T11:08:08;11.20;99.90
36002;DHT22;22070;50.922;5.430;2023-11-21T11:10:37;11.20;99.90
36002;DHT22;22070;50.922;5.430;2023-11-21T11:13:03;11.20;99.90
36002;DHT22;22070;50.922;5.430;2023-11-21T11:15:29;11.20;99.90
36002;DHT22;22070;50.922;5.430;2023-11-21T11:17:55;11.20;99.90
36002;DHT22;22070;50.922;5.430;2023-11-21T11:20:24;11.20;99.90
36002;DHT22;22070;50.922;5.430;2023-11-21T11:26:36;11.40;99.90
36002;DHT22;22070;50.922;5.430;2023-11-21T11:34:44;11.40;99.90
36002;DHT22;22070;50.922;5.430;2023-11-21T11:37:12;11.40;99.90
36002;DHT22;22070;50.922;5.430;2023-11-21T11:39:39;11.30;99.90
36002;DHT22;22070;50.922;5.430;2023-11-21T11:42:10;11.40;99.90
36002;DHT22;22070;50.922;5.430;2023-11-21T11:47:31;11.40;99.90
36002;DHT22;22070;50.922;5.430;2023-11-21T11:50:11;11.40;99.90
36002;DHT22;22070;50.922;5.430;2023-11-21T11:52:43;11.50;99.90
36002;DHT22;22070;50.922;5.430;2023-11-21T11:55:14;11.50;99.90
36002;DHT22;22070;50.922;5.430;2023-11-21T11:57:42;11.50;99.90
36002;DHT22;22070;50.922;5.430;2023-11-21T12:00:21;11.60;99.90
36002;DHT22;22070;50.922;5.430;2023-11-21T12:02:59;11.70;99.90
36002;DHT22;22070;50.922;5.430;2023-11-21T12:05:29;11.70;99.90
36002;DHT22;22070;50.922;5.430;2023-11-21T12:08:00;11.60;99.90
36002;DHT22;22070;50.922;5.430;2023-11-21T12:10:44;11.60;99.90
36002;DHT22;22070;50.922;5.430;2023-11-21T12:13:10;11.70;99.90
36002;DHT22;22070;50.922;5.430;2023-11-21T12:15:38;11.60;99.90
36002;DHT22;22070;50.922;5.430;2023-11-21T12:18:05;11.60;99.90
36002;DHT22;22070;50.922;5.430;2023-11-21T12:20:31;11.50;99.90
36002;DHT22;22070;50.922;5.430;2023-11-21T12:22:58;11.50;99.90
36002;DHT22;22070;50.922;5.430;2023-11-21T12:25:28;11.50;99.90
36002;DHT22;22070;50.922;5.430;2023-11-21T12:27:55;11.40;99.90
36002;DHT22;22070;50.922;5.430;2023-11-21T12:30:23;11.50;99.90
36002;DHT22;22070;50.922;5.430;2023-11-21T12:32:50;11.50;99.90
36002;DHT22;22070;50.922;5.430;2023-11-21T12:35:21;11.50;99.90
36002;DHT22;22070;50.922;5.430;2023-11-21T12:37:47;11.50;99.90
36002;DHT22;22070;50.922;5.430;2023-11-21T12:40:14;11.50;99.90
36002;DHT22;22070;50.922;5.430;2023-11-21T12:42:45;11.50;99.90
36002;DHT22;22070;50.922;5.430;2023-11-21T12:45:21;11.60;99.90
36002;DHT22;22070;50.922;5.430;2023-11-21T12:47:51;11.60;99.90
36002;DHT22;22070;50.922;5.430;2023-11-21T12:50:21;11.60;99.90
36002;DHT22;22070;50.922;5.430;2023-11-21T12:52:57;11.50;99.90
36002;DHT22;22070;50.922;5.430;2023-11-21T12:55:23;11.60;99.90
36002;DHT22;22070;50.922;5.430;2023-11-21T12:57:53;11.50;99.90
36002;DHT22;22070;50.922;5.430;2023-11-21T13:00:32;11.50;99.90
36002;DHT22;22070;50.922;5.430;2023-11-21T13:02:59;11.60;99.90
36002;DHT22;22070;50.922;5.430;2023-11-21T13:05:36;11.60;99.90
36002;DHT22;22070;50.922;5.430;2023-11-21T13:08:06;11.70;99.90
36002;DHT22;22070;50.922;5.430;2023-11-21T13:10:39;11.60;99.90
36002;DHT22;22070;50.922;5.430;2023-11-21T13:13:07;11.60;99.90
36002;DHT22;22070;50.922;5.430;2023-11-21T13:15:35;11.60;99.90
36002;DHT22;22070;50.922;5.430;2023-11-21T13:18:03;11.70;99.90
36002;DHT22;22070;50.922;5.430;2023-11-21T13:20:29;11.80;99.90
36002;DHT22;22070;50.922;5.430;2023-11-21T13:22:58;11.80;99.90
36002;DHT22;22070;50.922;5.430;2023-11-21T13:25:26;11.80;99.90
36002;DHT22;22070;50.922;5.430;2023-11-21T13:27:58;11.80;99.90
36002;DHT22;22070;50.922;5.430;2023-11-21T13:30:28;11.90;99.90
36002;DHT22;22070;50.922;5.430;2023-11-21T13:33:04;11.90;99.90
36002;DHT22;22070;50.922;5.430;2023-11-21T13:35:37;11.80;99.90
36002;DHT22;22070;50.922;5.430;2023-11-21T13:38:15;11.90;99.90
36002;DHT22;22070;50.922;5.430;2023-11-21T13:41:02;12.00;99.90
36002;DHT22;22070;50.922;5.430;2023-11-21T13:43:28;12.00;99.90
36002;DHT22;22070;50.922;5.430;2023-11-21T13:45:54;11.90;99.90
36002;DHT22;22070;50.922;5.430;2023-11-21T13:48:38;11.90;99.90
36002;DHT22;22070;50.922;5.430;2023-11-21T13:51:09;11.90;99.90
36002;DHT22;22070;50.922;5.430;2023-11-21T13:53:46;12.00;99.90
36002;DHT22;22070;50.922;5.430;2023-11-21T13:56:15;11.90;99.90
36002;DHT22;22070;50.922;5.430;2023-11-21T13:58:52;12.00;99.90
36002;DHT22;22070;50.922;5.430;2023-11-21T14:01:20;12.10;99.90
36002;DHT22;22070;50.922;5.430;2023-11-21T14:04:04;12.00;99.90
36002;DHT22;22070;50.922;5.430;2023-11-21T14:06:46;12.10;99.90
36002;DHT22;22070;50.922;5.430;2023-11-21T14:09:18;12.10;99.90
36002;DHT22;22070;50.922;5.430;2023-11-21T14:11:57;12.10;99.90
36002;DHT22;22070;50.922;5.430;2023-11-21T14:14:26;12.10;99.90
36002;DHT22;22070;50.922;5.430;2023-11-21T14:16:53;12.10;99.90
36002;DHT22;22070;50.922;5.430;2023-11-21T14:19:21;12.00;99.90
36002;DHT22;22070;50.922;5.430;2023-11-21T14:21:47;12.00;99.90
36002;DHT22;22070;50.922;5.430;2023-11-21T14:24:16;12.00;99.90
36002;DHT22;22070;50.922;5.430;2023-11-21T14:26:46;12.00;99.90
36002;DHT22;22070;50.922;5.430;2023-11-21T14:29:12;12.00;99.90
36002;DHT22;22070;50.922;5.430;2023-11-21T14:31:40;12.00;99.90
36002;DHT22;22070;50.922;5.430;2023-11-21T14:34:07;11.90;99.90
36002;DHT22;22070;50.922;5.430;2023-11-21T14:36:34;11.90;99.90
36002;DHT22;22070;50.922;5.430;2023-11-21T14:38:59;11.90;99.90
36002;DHT22;22070;50.922;5.430;2023-11-21T14:41:25;11.90;99.90
36002;DHT22;22070;50.922;5.430;2023-11-21T14:43:53;11.80;99.90
36002;DHT22;22070;50.922;5.430;2023-11-21T14:46:19;11.90;99.90
36002;DHT22;22070;50.922;5.430;2023-11-21T14:48:45;11.90;99.90
36002;DHT22;22070;50.922;5.430;2023-11-21T14:51:24;11.80;99.90
36002;DHT22;22070;50.922;5.430;2023-11-21T14:53:56;11.80;99.90
36002;DHT22;22070;50.922;5.430;2023-11-21T14:56:31;11.90;99.90
36002;DHT22;22070;50.922;5.430;2023-11-21T14:58:58;11.90;99.90
36002;DHT22;22070;50.922;5.430;2023-11-21T15:01:41;11.90;99.90
36002;DHT22;22070;50.922;5.430;2023-11-21T15:04:23;11.90;99.90
36002;DHT22;22070;50.922;5.430;2023-11-21T15:07:05;11.80;99.90
36002;DHT22;22070;50.922;5.430;2023-11-21T15:09:32;11.80;99.90
36002;DHT22;22070;50.922;5.430;2023-11-21T15:11:58;11.80;99.90
36002;DHT22;22070;50.922;5.430;2023-11-21T15:14:29;11.80;99.90
36002;DHT22;22070;50.922;5.430;2023-11-21T15:16:57;11.80;99.90
36002;DHT22;22070;50.922;5.430;2023-11-21T15:19:25;11.80;99.90
36002;DHT22;22070;50.922;5.430;2023-11-21T15:21:51;11.80;99.90
36002;DHT22;22070;50.922;5.430;2023-11-21T15:24:17;11.80;99.90
36002;DHT22;22070;50.922;5.430;2023-11-21T15:26:43;11.70;99.90
36002;DHT22;22070;50.922;5.430;2023-11-21T15:29:08;11.70;99.90
36002;DHT22;22070;50.922;5.430;2023-11-21T15:31:34;11.70;99.90
36002;DHT22;22070;50.922;5.430;2023-11-21T15:34:01;11.70;99.90
36002;DHT22;22070;50.922;5.430;2023-11-21T15:36:27;11.70;99.90
36002;DHT22;22070;50.922;5.430;2023-11-21T15:38:53;11.70;99.90
36002;DHT22;22070;50.922;5.430;2023-11-21T15:41:19;11.70;99.90
36002;DHT22;22070;50.922;5.430;2023-11-21T15:43:45;11.70;99.90
36002;DHT22;22070;50.922;5.430;2023-11-21T15:46:10;11.70;99.90
36002;DHT22;22070;50.922;5.430;2023-11-21T15:48:37;11.70;99.90
36002;DHT22;22070;50.922;5.430;2023-11-21T15:51:06;11.70;99.90
36002;DHT22;22070;50.922;5.430;2023-11-21T15:53:35;11.70;99.90